Lake Clark National Park, AK

1:33 AM AKDT on September 02, 2014 (GMT -0800)
RAWS SNIPE LAKE AK US | Change Station
CLOSE
Current Station
Personal Weather Station
Location: Port Alsworth, AK
Elevation: 2314 ft
Nearby Weather Stations

Elev 2314 ft 60.61 °N, 154.32 °W | Updated 29 minutes ago

Overcast
Overcast
46 °F
Feels Like 41 °F
N
10
Wind Variable Wind from SSW
Gusts 19.0 mph

Today
High -- | Low -- °F
--% Chance of Precip.
Yesterday
High -- | Low -- °F
Precip. -- in
7:15 AM 9:18 PM
Waxing Crescent, 49% visible
Pressure 29.93 in
Visibility 10.0 miles
Clouds Overcast 700 ft
Windchill 41 °F
Dew Point 44 °F
Humidity 91%
Rainfall 0.01 in
Snow Depth Not available.
UV 0 out of 12
Pollen Not available.
Air Quality Not available.
Flu Activity Not available.
METAR PASV 020855Z AUTO 22011KT 180V240 10SM OVC007 10/08 A2992 RMK AO2 SLP135 T00950082 401140023 52006

More Conditions Fewer Conditions

Pressure 29.93 in
Visibility 10.0 miles
Clouds Overcast 700 ft
Windchill 41 °F
Dew Point 44 °F
Humidity 91%
Rainfall 0.01 in
Snow Depth Not available.
UV 0 out of 12
Pollen Not available.
Air Quality Not available.
Flu Activity Not available.
METAR PASV 020855Z AUTO 22011KT 180V240 10SM OVC007 10/08 A2992 RMK AO2 SLP135 T00950082 401140023 52006

More Conditions Fewer Conditions

10-Day Weather Forecast

Almanac

Astronomy

Sep. 02, 2014 Rise Set
Actual Time 7:15 AM AKDT 9:18 PM AKDT
Civil Twilight 6:29 AM AKDT 10:03 PM AKDT
Nautical Twilight 5:30 AM AKDT 11:01 PM AKDT
Astronomical Twilight 4:14 AM AKDT 12:16 AM AKDT
Moon 5:04 PM AKDT No Moon Set
Length of Visible Light 15h 33m
Length of Day
14h 03m
Tomorrow will be 5m 28s shorter.
Waxing Crescent, 49% of the Moon is Illuminated
Today
Waxing Crescent
Sep 2
First Quarter
Sep 8
Full
Sep 15
Last Quarter
Sep 24
New

Today's Extremes

State Highs State Lows

Community

WunderPhotos

Upload Photos

1,749,587 photos uploaded!

WunderBlogs® & News

Nearby

Snow Depth

Station Depth Elevation
Mcneil Canyon 1 in 1320 ft
Port Graham 0 in 300 ft
MF Bradley River 2 in 2300 ft
Cooper Lake 19 in 1200 ft
Point Mackenzie 1 in 200 ft

Earthquake Activity

City Distance Mag. Time & Date
No recent earthquake activity has been reported nearby.
Minimum magnitude displayed is 2.5.

Coastal Water Temperatures

Place Temperature
No Stations Reporting

Nearby Weather Stations